sensor_id;sensor_type;location;lat;lon;timestamp;P1;durP1;ratioP1;P2;durP2;ratioP2
10260;SDS011;5175;42.606;23.388;2023-07-13T00:00:07;5.25;;;4.13;;
10260;SDS011;5175;42.606;23.388;2023-07-13T00:02:35;5.53;;;4.05;;
10260;SDS011;5175;42.606;23.388;2023-07-13T00:05:02;4.20;;;3.80;;
10260;SDS011;5175;42.606;23.388;2023-07-13T00:07:29;6.30;;;4.63;;
10260;SDS011;5175;42.606;23.388;2023-07-13T00:09:56;5.35;;;4.38;;
10260;SDS011;5175;42.606;23.388;2023-07-13T00:12:25;6.53;;;4.38;;
10260;SDS011;5175;42.606;23.388;2023-07-13T00:14:54;4.68;;;4.28;;
10260;SDS011;5175;42.606;23.388;2023-07-13T00:17:24;4.90;;;4.40;;
10260;SDS011;5175;42.606;23.388;2023-07-13T00:19:50;4.90;;;4.47;;
10260;SDS011;5175;42.606;23.388;2023-07-13T00:22:18;6.57;;;4.65;;
10260;SDS011;5175;42.606;23.388;2023-07-13T00:24:45;5.65;;;4.68;;
10260;SDS011;5175;42.606;23.388;2023-07-13T00:27:12;5.55;;;4.43;;
10260;SDS011;5175;42.606;23.388;2023-07-13T00:29:38;5.70;;;5.10;;
10260;SDS011;5175;42.606;23.388;2023-07-13T00:32:06;5.75;;;4.57;;
10260;SDS011;5175;42.606;23.388;2023-07-13T00:34:35;8.43;;;5.30;;
10260;SDS011;5175;42.606;23.388;2023-07-13T00:37:03;6.80;;;5.25;;
10260;SDS011;5175;42.606;23.388;2023-07-13T00:39:31;5.43;;;4.90;;
10260;SDS011;5175;42.606;23.388;2023-07-13T00:41:58;5.35;;;4.45;;
10260;SDS011;5175;42.606;23.388;2023-07-13T00:44:26;4.88;;;4.28;;
10260;SDS011;5175;42.606;23.388;2023-07-13T00:46:53;5.05;;;4.55;;
10260;SDS011;5175;42.606;23.388;2023-07-13T00:49:22;4.97;;;4.47;;
10260;SDS011;5175;42.606;23.388;2023-07-13T00:51:52;5.82;;;4.55;;
10260;SDS011;5175;42.606;23.388;2023-07-13T00:54:22;4.38;;;3.97;;
10260;SDS011;5175;42.606;23.388;2023-07-13T00:56:53;5.47;;;4.72;;
10260;SDS011;5175;42.606;23.388;2023-07-13T00:59:24;6.07;;;4.75;;
10260;SDS011;5175;42.606;23.388;2023-07-13T01:01:52;5.38;;;4.70;;
10260;SDS011;5175;42.606;23.388;2023-07-13T01:04:19;4.88;;;4.38;;
10260;SDS011;5175;42.606;23.388;2023-07-13T01:06:46;5.85;;;5.10;;
10260;SDS011;5175;42.606;23.388;2023-07-13T01:09:15;6.65;;;4.88;;
10260;SDS011;5175;42.606;23.388;2023-07-13T01:11:43;5.32;;;4.82;;
10260;SDS011;5175;42.606;23.388;2023-07-13T01:14:11;6.85;;;4.80;;
10260;SDS011;5175;42.606;23.388;2023-07-13T01:16:38;5.55;;;4.93;;
10260;SDS011;5175;42.606;23.388;2023-07-13T01:19:08;7.65;;;4.93;;
10260;SDS011;5175;42.606;23.388;2023-07-13T01:21:43;5.25;;;4.75;;
10260;SDS011;5175;42.606;23.388;2023-07-13T01:24:10;5.35;;;4.57;;
10260;SDS011;5175;42.606;23.388;2023-07-13T01:26:37;8.45;;;5.65;;
10260;SDS011;5175;42.606;23.388;2023-07-13T01:29:03;6.40;;;5.38;;
10260;SDS011;5175;42.606;23.388;2023-07-13T01:31:30;5.70;;;5.18;;
10260;SDS011;5175;42.606;23.388;2023-07-13T01:33:57;6.40;;;5.80;;
10260;SDS011;5175;42.606;23.388;2023-07-13T01:36:24;5.63;;;4.88;;
10260;SDS011;5175;42.606;23.388;2023-07-13T01:38:52;6.97;;;5.55;;
10260;SDS011;5175;42.606;23.388;2023-07-13T01:41:19;6.13;;;5.05;;
10260;SDS011;5175;42.606;23.388;2023-07-13T01:43:45;5.80;;;5.30;;
10260;SDS011;5175;42.606;23.388;2023-07-13T01:46:12;5.90;;;5.30;;
10260;SDS011;5175;42.606;23.388;2023-07-13T01:48:39;6.20;;;4.90;;
10260;SDS011;5175;42.606;23.388;2023-07-13T01:51:06;6.55;;;5.43;;
10260;SDS011;5175;42.606;23.388;2023-07-13T01:53:32;5.22;;;4.72;;
10260;SDS011;5175;42.606;23.388;2023-07-13T01:56:01;5.80;;;5.25;;
10260;SDS011;5175;42.606;23.388;2023-07-13T01:58:27;7.15;;;5.25;;
10260;SDS011;5175;42.606;23.388;2023-07-13T02:00:54;5.90;;;5.00;;
10260;SDS011;5175;42.606;23.388;2023-07-13T02:03:21;5.38;;;4.88;;
10260;SDS011;5175;42.606;23.388;2023-07-13T02:05:48;5.32;;;4.90;;
10260;SDS011;5175;42.606;23.388;2023-07-13T02:08:14;6.00;;;5.22;;
10260;SDS011;5175;42.606;23.388;2023-07-13T02:10:41;6.32;;;5.10;;
10260;SDS011;5175;42.606;23.388;2023-07-13T02:13:09;6.45;;;5.18;;
10260;SDS011;5175;42.606;23.388;2023-07-13T02:15:38;6.10;;;5.50;;
10260;SDS011;5175;42.606;23.388;2023-07-13T02:18:05;6.53;;;5.45;;
10260;SDS011;5175;42.606;23.388;2023-07-13T02:20:32;8.60;;;5.53;;
10260;SDS011;5175;42.606;23.388;2023-07-13T02:22:59;5.82;;;4.93;;
10260;SDS011;5175;42.606;23.388;2023-07-13T02:25:25;7.25;;;5.75;;
10260;SDS011;5175;42.606;23.388;2023-07-13T02:27:52;10.38;;;5.57;;
10260;SDS011;5175;42.606;23.388;2023-07-13T02:30:20;7.30;;;5.88;;
10260;SDS011;5175;42.606;23.388;2023-07-13T02:32:49;7.20;;;5.07;;
10260;SDS011;5175;42.606;23.388;2023-07-13T02:35:16;7.78;;;5.55;;
10260;SDS011;5175;42.606;23.388;2023-07-13T02:37:43;6.10;;;5.55;;
10260;SDS011;5175;42.606;23.388;2023-07-13T02:40:10;5.63;;;5.20;;
10260;SDS011;5175;42.606;23.388;2023-07-13T02:42:37;7.95;;;6.00;;
10260;SDS011;5175;42.606;23.388;2023-07-13T02:45:04;5.60;;;5.05;;
10260;SDS011;5175;42.606;23.388;2023-07-13T02:47:33;5.88;;;5.30;;
10260;SDS011;5175;42.606;23.388;2023-07-13T02:50:00;6.85;;;5.40;;
10260;SDS011;5175;42.606;23.388;2023-07-13T02:52:27;6.13;;;5.53;;
10260;SDS011;5175;42.606;23.388;2023-07-13T02:54:53;6.72;;;5.43;;
10260;SDS011;5175;42.606;23.388;2023-07-13T02:57:20;6.80;;;5.55;;
10260;SDS011;5175;42.606;23.388;2023-07-13T02:59:47;6.65;;;6.00;;
10260;SDS011;5175;42.606;23.388;2023-07-13T03:02:15;7.18;;;5.57;;
10260;SDS011;5175;42.606;23.388;2023-07-13T03:04:43;6.82;;;6.15;;
10260;SDS011;5175;42.606;23.388;2023-07-13T03:07:10;6.40;;;5.80;;
10260;SDS011;5175;42.606;23.388;2023-07-13T03:09:36;8.15;;;5.40;;
10260;SDS011;5175;42.606;23.388;2023-07-13T03:12:03;7.22;;;6.20;;
10260;SDS011;5175;42.606;23.388;2023-07-13T03:14:31;7.53;;;6.63;;
10260;SDS011;5175;42.606;23.388;2023-07-13T03:16:57;6.97;;;5.70;;
10260;SDS011;5175;42.606;23.388;2023-07-13T03:19:24;6.72;;;5.72;;
10260;SDS011;5175;42.606;23.388;2023-07-13T03:21:53;7.45;;;6.45;;
10260;SDS011;5175;42.606;23.388;2023-07-13T03:24:19;7.50;;;5.78;;
10260;SDS011;5175;42.606;23.388;2023-07-13T03:26:50;6.25;;;5.68;;
10260;SDS011;5175;42.606;23.388;2023-07-13T03:29:17;6.40;;;5.80;;
10260;SDS011;5175;42.606;23.388;2023-07-13T03:31:44;6.85;;;6.15;;
10260;SDS011;5175;42.606;23.388;2023-07-13T03:34:11;7.38;;;6.05;;
10260;SDS011;5175;42.606;23.388;2023-07-13T03:36:38;7.30;;;6.25;;
10260;SDS011;5175;42.606;23.388;2023-07-13T03:39:06;6.72;;;5.80;;
10260;SDS011;5175;42.606;23.388;2023-07-13T03:41:34;6.88;;;6.18;;
10260;SDS011;5175;42.606;23.388;2023-07-13T03:44:00;7.40;;;6.30;;
10260;SDS011;5175;42.606;23.388;2023-07-13T03:46:27;8.52;;;6.78;;
10260;SDS011;5175;42.606;23.388;2023-07-13T03:48:54;7.07;;;6.38;;
10260;SDS011;5175;42.606;23.388;2023-07-13T03:51:21;7.78;;;7.00;;
10260;SDS011;5175;42.606;23.388;2023-07-13T03:53:48;8.68;;;6.78;;
10260;SDS011;5175;42.606;23.388;2023-07-13T03:56:16;8.68;;;6.88;;
10260;SDS011;5175;42.606;23.388;2023-07-13T03:58:44;6.95;;;6.28;;
10260;SDS011;5175;42.606;23.388;2023-07-13T04:01:13;6.97;;;6.28;;
10260;SDS011;5175;42.606;23.388;2023-07-13T04:03:41;7.18;;;6.47;;
10260;SDS011;5175;42.606;23.388;2023-07-13T04:06:11;8.65;;;6.70;;
10260;SDS011;5175;42.606;23.388;2023-07-13T04:08:46;7.15;;;6.45;;
10260;SDS011;5175;42.606;23.388;2023-07-13T04:11:14;9.60;;;6.72;;
10260;SDS011;5175;42.606;23.388;2023-07-13T04:13:42;8.27;;;6.38;;
10260;SDS011;5175;42.606;23.388;2023-07-13T04:16:09;8.38;;;6.85;;
10260;SDS011;5175;42.606;23.388;2023-07-13T04:18:36;7.97;;;7.10;;
10260;SDS011;5175;42.606;23.388;2023-07-13T04:21:03;8.20;;;6.72;;
10260;SDS011;5175;42.606;23.388;2023-07-13T04:23:29;6.85;;;6.25;;
10260;SDS011;5175;42.606;23.388;2023-07-13T04:25:56;6.95;;;6.35;;
10260;SDS011;5175;42.606;23.388;2023-07-13T04:28:25;7.78;;;6.93;;
10260;SDS011;5175;42.606;23.388;2023-07-13T04:30:52;9.35;;;7.20;;
10260;SDS011;5175;42.606;23.388;2023-07-13T04:33:19;8.60;;;7.05;;
10260;SDS011;5175;42.606;23.388;2023-07-13T04:35:47;8.07;;;7.28;;
10260;SDS011;5175;42.606;23.388;2023-07-13T04:38:14;7.60;;;7.00;;
10260;SDS011;5175;42.606;23.388;2023-07-13T04:40:42;7.97;;;7.15;;
10260;SDS011;5175;42.606;23.388;2023-07-13T04:43:09;7.95;;;7.07;;
10260;SDS011;5175;42.606;23.388;2023-07-13T04:45:38;7.88;;;7.07;;
10260;SDS011;5175;42.606;23.388;2023-07-13T04:48:04;7.30;;;6.55;;
10260;SDS011;5175;42.606;23.388;2023-07-13T04:50:31;8.05;;;7.25;;
10260;SDS011;5175;42.606;23.388;2023-07-13T04:52:58;7.35;;;6.75;;
10260;SDS011;5175;42.606;23.388;2023-07-13T04:55:25;7.90;;;7.00;;
10260;SDS011;5175;42.606;23.388;2023-07-13T04:57:55;8.30;;;6.85;;
10260;SDS011;5175;42.606;23.388;2023-07-13T05:00:23;7.30;;;6.70;;
10260;SDS011;5175;42.606;23.388;2023-07-13T05:02:52;7.78;;;6.88;;
10260;SDS011;5175;42.606;23.388;2023-07-13T05:05:20;7.50;;;6.65;;
10260;SDS011;5175;42.606;23.388;2023-07-13T05:07:46;9.88;;;8.93;;
10260;SDS011;5175;42.606;23.388;2023-07-13T05:10:13;8.65;;;7.85;;
10260;SDS011;5175;42.606;23.388;2023-07-13T05:12:40;11.35;;;7.18;;
10260;SDS011;5175;42.606;23.388;2023-07-13T05:15:07;9.43;;;7.80;;
10260;SDS011;5175;42.606;23.388;2023-07-13T05:17:34;9.05;;;7.03;;
10260;SDS011;5175;42.606;23.388;2023-07-13T05:20:02;7.82;;;7.13;;
10260;SDS011;5175;42.606;23.388;2023-07-13T05:22:29;8.35;;;7.40;;
10260;SDS011;5175;42.606;23.388;2023-07-13T05:24:56;11.43;;;8.30;;
10260;SDS011;5175;42.606;23.388;2023-07-13T05:27:23;10.15;;;9.02;;
10260;SDS011;5175;42.606;23.388;2023-07-13T05:29:50;11.05;;;9.85;;
10260;SDS011;5175;42.606;23.388;2023-07-13T05:32:17;10.32;;;9.30;;
10260;SDS011;5175;42.606;23.388;2023-07-13T05:34:44;11.60;;;9.15;;
10260;SDS011;5175;42.606;23.388;2023-07-13T05:37:12;10.07;;;9.02;;
10260;SDS011;5175;42.606;23.388;2023-07-13T05:39:39;10.07;;;8.60;;
10260;SDS011;5175;42.606;23.388;2023-07-13T05:42:06;9.30;;;8.40;;
10260;SDS011;5175;42.606;23.388;2023-07-13T05:44:33;7.68;;;7.00;;
10260;SDS011;5175;42.606;23.388;2023-07-13T05:47:00;7.95;;;7.25;;
10260;SDS011;5175;42.606;23.388;2023-07-13T05:49:26;7.93;;;7.13;;
10260;SDS011;5175;42.606;23.388;2023-07-13T05:51:55;7.50;;;6.63;;
10260;SDS011;5175;42.606;23.388;2023-07-13T05:54:23;9.45;;;7.47;;
10260;SDS011;5175;42.606;23.388;2023-07-13T05:56:50;8.05;;;7.22;;
10260;SDS011;5175;42.606;23.388;2023-07-13T05:59:17;8.27;;;6.90;;
10260;SDS011;5175;42.606;23.388;2023-07-13T06:01:44;8.60;;;6.28;;
10260;SDS011;5175;42.606;23.388;2023-07-13T06:04:11;9.73;;;7.07;;
10260;SDS011;5175;42.606;23.388;2023-07-13T06:06:38;9.85;;;6.68;;
10260;SDS011;5175;42.606;23.388;2023-07-13T06:09:04;8.20;;;7.40;;
10260;SDS011;5175;42.606;23.388;2023-07-13T06:11:32;8.52;;;6.72;;
10260;SDS011;5175;42.606;23.388;2023-07-13T06:14:00;8.73;;;6.80;;
10260;SDS011;5175;42.606;23.388;2023-07-13T06:16:27;6.53;;;6.03;;
10260;SDS011;5175;42.606;23.388;2023-07-13T06:18:53;7.40;;;6.70;;
10260;SDS011;5175;42.606;23.388;2023-07-13T06:21:21;7.93;;;6.10;;
10260;SDS011;5175;42.606;23.388;2023-07-13T06:23:49;7.80;;;6.53;;
10260;SDS011;5175;42.606;23.388;2023-07-13T06:26:16;7.00;;;6.35;;
10260;SDS011;5175;42.606;23.388;2023-07-13T06:28:45;7.85;;;6.45;;
10260;SDS011;5175;42.606;23.388;2023-07-13T06:31:13;6.85;;;6.22;;
10260;SDS011;5175;42.606;23.388;2023-07-13T06:33:40;7.07;;;6.43;;
10260;SDS011;5175;42.606;23.388;2023-07-13T06:36:07;8.02;;;6.35;;
10260;SDS011;5175;42.606;23.388;2023-07-13T06:38:35;8.93;;;6.18;;
10260;SDS011;5175;42.606;23.388;2023-07-13T06:41:02;6.63;;;6.03;;
10260;SDS011;5175;42.606;23.388;2023-07-13T06:43:33;8.05;;;6.43;;
10260;SDS011;5175;42.606;23.388;2023-07-13T06:46:01;7.15;;;6.45;;
10260;SDS011;5175;42.606;23.388;2023-07-13T06:48:29;10.20;;;7.22;;
10260;SDS011;5175;42.606;23.388;2023-07-13T06:50:56;7.75;;;6.95;;
10260;SDS011;5175;42.606;23.388;2023-07-13T06:53:22;9.27;;;7.05;;
10260;SDS011;5175;42.606;23.388;2023-07-13T06:55:49;8.18;;;6.97;;
10260;SDS011;5175;42.606;23.388;2023-07-13T06:58:17;8.85;;;7.25;;
10260;SDS011;5175;42.606;23.388;2023-07-13T07:00:44;8.10;;;7.30;;
10260;SDS011;5175;42.606;23.388;2023-07-13T07:03:12;8.13;;;6.68;;
10260;SDS011;5175;42.606;23.388;2023-07-13T07:05:39;8.73;;;7.20;;
10260;SDS011;5175;42.606;23.388;2023-07-13T07:08:06;8.02;;;7.25;;
10260;SDS011;5175;42.606;23.388;2023-07-13T07:10:34;9.20;;;7.43;;
10260;SDS011;5175;42.606;23.388;2023-07-13T07:13:02;10.18;;;7.63;;
10260;SDS011;5175;42.606;23.388;2023-07-13T07:15:29;11.18;;;8.55;;
10260;SDS011;5175;42.606;23.388;2023-07-13T07:17:56;7.70;;;7.00;;
10260;SDS011;5175;42.606;23.388;2023-07-13T07:20:24;7.95;;;7.20;;
10260;SDS011;5175;42.606;23.388;2023-07-13T07:22:51;7.88;;;7.07;;
10260;SDS011;5175;42.606;23.388;2023-07-13T07:25:18;8.88;;;7.47;;
10260;SDS011;5175;42.606;23.388;2023-07-13T07:27:45;8.13;;;7.43;;
10260;SDS011;5175;42.606;23.388;2023-07-13T07:30:12;9.10;;;7.32;;
10260;SDS011;5175;42.606;23.388;2023-07-13T07:32:40;10.77;;;7.40;;
10260;SDS011;5175;42.606;23.388;2023-07-13T07:35:07;12.45;;;7.55;;
10260;SDS011;5175;42.606;23.388;2023-07-13T07:37:35;10.23;;;7.13;;
10260;SDS011;5175;42.606;23.388;2023-07-13T07:40:02;8.32;;;7.35;;
10260;SDS011;5175;42.606;23.388;2023-07-13T07:42:29;8.20;;;7.28;;
10260;SDS011;5175;42.606;23.388;2023-07-13T07:44:56;9.93;;;7.90;;
10260;SDS011;5175;42.606;23.388;2023-07-13T07:47:23;9.07;;;8.00;;
10260;SDS011;5175;42.606;23.388;2023-07-13T07:49:50;12.65;;;9.13;;
10260;SDS011;5175;42.606;23.388;2023-07-13T07:52:17;9.02;;;8.13;;
10260;SDS011;5175;42.606;23.388;2023-07-13T07:54:46;9.23;;;8.23;;
10260;SDS011;5175;42.606;23.388;2023-07-13T07:57:14;10.48;;;8.82;;
10260;SDS011;5175;42.606;23.388;2023-07-13T07:59:40;9.43;;;8.43;;
10260;SDS011;5175;42.606;23.388;2023-07-13T08:02:08;10.02;;;8.50;;
10260;SDS011;5175;42.606;23.388;2023-07-13T08:04:36;9.30;;;8.30;;
10260;SDS011;5175;42.606;23.388;2023-07-13T08:07:03;9.52;;;8.15;;
10260;SDS011;5175;42.606;23.388;2023-07-13T08:09:31;11.07;;;8.38;;
10260;SDS011;5175;42.606;23.388;2023-07-13T08:11:59;8.70;;;7.75;;
10260;SDS011;5175;42.606;23.388;2023-07-13T08:14:26;9.32;;;7.95;;
10260;SDS011;5175;42.606;23.388;2023-07-13T08:16:53;8.18;;;7.47;;
10260;SDS011;5175;42.606;23.388;2023-07-13T08:19:20;9.75;;;7.72;;
10260;SDS011;5175;42.606;23.388;2023-07-13T08:21:47;8.07;;;7.28;;
10260;SDS011;5175;42.606;23.388;2023-07-13T08:24:14;8.48;;;7.60;;
10260;SDS011;5175;42.606;23.388;2023-07-13T08:26:43;8.82;;;8.00;;
10260;SDS011;5175;42.606;23.388;2023-07-13T08:29:11;8.18;;;7.30;;
10260;SDS011;5175;42.606;23.388;2023-07-13T08:31:38;8.02;;;7.03;;
10260;SDS011;5175;42.606;23.388;2023-07-13T08:34:05;8.00;;;7.28;;
10260;SDS011;5175;42.606;23.388;2023-07-13T08:36:32;8.05;;;7.25;;
10260;SDS011;5175;42.606;23.388;2023-07-13T08:38:58;8.95;;;7.47;;
10260;SDS011;5175;42.606;23.388;2023-07-13T08:41:25;8.93;;;7.50;;
10260;SDS011;5175;42.606;23.388;2023-07-13T08:43:56;8.68;;;7.65;;
10260;SDS011;5175;42.606;23.388;2023-07-13T08:46:28;7.90;;;7.13;;
10260;SDS011;5175;42.606;23.388;2023-07-13T08:49:01;9.32;;;7.63;;
10260;SDS011;5175;42.606;23.388;2023-07-13T08:51:35;7.72;;;7.00;;
10260;SDS011;5175;42.606;23.388;2023-07-13T08:54:11;8.57;;;7.45;;
10260;SDS011;5175;42.606;23.388;2023-07-13T08:56:45;9.75;;;7.85;;
10260;SDS011;5175;42.606;23.388;2023-07-13T08:59:14;10.93;;;7.00;;
10260;SDS011;5175;42.606;23.388;2023-07-13T09:01:57;8.70;;;7.40;;
10260;SDS011;5175;42.606;23.388;2023-07-13T09:04:34;7.38;;;6.68;;
10260;SDS011;5175;42.606;23.388;2023-07-13T09:07:05;7.32;;;6.70;;
10260;SDS011;5175;42.606;23.388;2023-07-13T09:09:45;10.23;;;6.68;;
10260;SDS011;5175;42.606;23.388;2023-07-13T09:12:24;7.63;;;6.82;;
10260;SDS011;5175;42.606;23.388;2023-07-13T09:14:58;7.95;;;6.93;;
10260;SDS011;5175;42.606;23.388;2023-07-13T09:17:31;7.72;;;6.35;;
10260;SDS011;5175;42.606;23.388;2023-07-13T09:20:04;8.45;;;6.95;;
10260;SDS011;5175;42.606;23.388;2023-07-13T09:22:37;10.80;;;6.78;;
10260;SDS011;5175;42.606;23.388;2023-07-13T09:25:05;7.57;;;6.85;;
10260;SDS011;5175;42.606;23.388;2023-07-13T09:27:56;7.32;;;6.43;;
10260;SDS011;5175;42.606;23.388;2023-07-13T09:30:33;8.35;;;6.50;;
10260;SDS011;5175;42.606;23.388;2023-07-13T09:33:06;8.57;;;6.68;;
10260;SDS011;5175;42.606;23.388;2023-07-13T09:35:34;10.68;;;6.60;;
10260;SDS011;5175;42.606;23.388;2023-07-13T09:38:03;7.05;;;6.35;;
10260;SDS011;5175;42.606;23.388;2023-07-13T09:40:40;10.55;;;6.80;;
10260;SDS011;5175;42.606;23.388;2023-07-13T09:43:14;8.50;;;6.78;;
10260;SDS011;5175;42.606;23.388;2023-07-13T09:45:43;9.57;;;7.05;;
10260;SDS011;5175;42.606;23.388;2023-07-13T09:48:14;9.88;;;7.05;;
10260;SDS011;5175;42.606;23.388;2023-07-13T09:50:43;10.18;;;6.68;;
10260;SDS011;5175;42.606;23.388;2023-07-13T09:53:11;8.20;;;6.53;;
10260;SDS011;5175;42.606;23.388;2023-07-13T09:55:39;7.93;;;6.85;;
10260;SDS011;5175;42.606;23.388;2023-07-13T09:58:09;16.05;;;7.05;;
10260;SDS011;5175;42.606;23.388;2023-07-13T10:00:38;9.77;;;6.72;;
10260;SDS011;5175;42.606;23.388;2023-07-13T10:03:13;7.00;;;6.40;;
10260;SDS011;5175;42.606;23.388;2023-07-13T10:05:46;7.10;;;6.38;;
10260;SDS011;5175;42.606;23.388;2023-07-13T10:08:19;9.55;;;6.78;;
10260;SDS011;5175;42.606;23.388;2023-07-13T10:10:52;7.97;;;6.20;;
10260;SDS011;5175;42.606;23.388;2023-07-13T10:13:28;7.00;;;5.97;;
10260;SDS011;5175;42.606;23.388;2023-07-13T10:15:57;10.60;;;6.28;;
10260;SDS011;5175;42.606;23.388;2023-07-13T10:18:27;8.48;;;6.22;;
10260;SDS011;5175;42.606;23.388;2023-07-13T10:20:58;6.38;;;5.72;;
10260;SDS011;5175;42.606;23.388;2023-07-13T10:23:36;7.38;;;6.60;;
10260;SDS011;5175;42.606;23.388;2023-07-13T10:26:09;10.20;;;6.75;;
10260;SDS011;5175;42.606;23.388;2023-07-13T10:28:41;9.35;;;6.47;;
10260;SDS011;5175;42.606;23.388;2023-07-13T10:31:13;7.13;;;6.30;;
10260;SDS011;5175;42.606;23.388;2023-07-13T10:33:43;7.28;;;6.57;;
10260;SDS011;5175;42.606;23.388;2023-07-13T10:36:12;6.82;;;6.13;;
10260;SDS011;5175;42.606;23.388;2023-07-13T10:38:44;10.38;;;6.97;;
10260;SDS011;5175;42.606;23.388;2023-07-13T10:41:14;10.23;;;6.90;;
10260;SDS011;5175;42.606;23.388;2023-07-13T10:43:45;8.68;;;6.57;;
10260;SDS011;5175;42.606;23.388;2023-07-13T10:46:17;8.60;;;6.78;;
10260;SDS011;5175;42.606;23.388;2023-07-13T10:48:48;11.10;;;6.68;;
10260;SDS011;5175;42.606;23.388;2023-07-13T10:51:19;8.93;;;6.72;;
10260;SDS011;5175;42.606;23.388;2023-07-13T10:53:47;7.88;;;6.53;;
10260;SDS011;5175;42.606;23.388;2023-07-13T10:56:34;9.77;;;6.45;;
10260;SDS011;5175;42.606;23.388;2023-07-13T10:59:02;6.70;;;6.10;;
10260;SDS011;5175;42.606;23.388;2023-07-13T11:01:40;7.32;;;6.35;;
10260;SDS011;5175;42.606;23.388;2023-07-13T11:04:18;7.63;;;6.55;;
10260;SDS011;5175;42.606;23.388;2023-07-13T11:06:47;8.65;;;6.10;;
10260;SDS011;5175;42.606;23.388;2023-07-13T11:09:30;10.68;;;6.43;;
10260;SDS011;5175;42.606;23.388;2023-07-13T11:11:59;7.05;;;6.28;;
10260;SDS011;5175;42.606;23.388;2023-07-13T11:14:31;8.75;;;6.13;;
10260;SDS011;5175;42.606;23.388;2023-07-13T11:20:08;9.60;;;6.30;;
10260;SDS011;5175;42.606;23.388;2023-07-13T11:22:45;7.05;;;6.10;;
10260;SDS011;5175;42.606;23.388;2023-07-13T11:25:29;8.43;;;6.45;;
10260;SDS011;5175;42.606;23.388;2023-07-13T11:28:05;7.80;;;6.10;;
10260;SDS011;5175;42.606;23.388;2023-07-13T11:30:40;7.97;;;6.25;;
10260;SDS011;5175;42.606;23.388;2023-07-13T11:33:19;7.05;;;6.20;;
10260;SDS011;5175;42.606;23.388;2023-07-13T11:35:51;7.80;;;6.22;;
10260;SDS011;5175;42.606;23.388;2023-07-13T11:38:27;5.68;;;5.03;;
10260;SDS011;5175;42.606;23.388;2023-07-13T11:40:59;8.95;;;5.68;;
10260;SDS011;5175;42.606;23.388;2023-07-13T11:43:29;9.48;;;6.00;;
10260;SDS011;5175;42.606;23.388;2023-07-13T11:45:58;7.13;;;5.95;;
10260;SDS011;5175;42.606;23.388;2023-07-13T11:48:26;8.82;;;5.75;;
10260;SDS011;5175;42.606;23.388;2023-07-13T11:50:57;8.90;;;6.05;;
10260;SDS011;5175;42.606;23.388;2023-07-13T11:53:26;7.90;;;5.63;;
10260;SDS011;5175;42.606;23.388;2023-07-13T11:55:55;7.88;;;5.63;;
10260;SDS011;5175;42.606;23.388;2023-07-13T11:58:24;6.60;;;5.10;;
10260;SDS011;5175;42.606;23.388;2023-07-13T12:00:53;9.35;;;5.75;;
10260;SDS011;5175;42.606;23.388;2023-07-13T12:03:23;7.38;;;5.30;;
10260;SDS011;5175;42.606;23.388;2023-07-13T12:05:56;6.53;;;5.55;;
10260;SDS011;5175;42.606;23.388;2023-07-13T12:08:26;7.50;;;5.35;;
10260;SDS011;5175;42.606;23.388;2023-07-13T12:10:56;9.35;;;5.30;;
10260;SDS011;5175;42.606;23.388;2023-07-13T12:13:26;6.80;;;5.38;;
10260;SDS011;5175;42.606;23.388;2023-07-13T12:15:55;7.63;;;5.40;;
10260;SDS011;5175;42.606;23.388;2023-07-13T12:18:23;6.57;;;5.03;;
10260;SDS011;5175;42.606;23.388;2023-07-13T12:20:57;8.50;;;5.32;;
10260;SDS011;5175;42.606;23.388;2023-07-13T12:23:26;8.02;;;5.32;;
10260;SDS011;5175;42.606;23.388;2023-07-13T12:25:56;9.30;;;5.80;;
10260;SDS011;5175;42.606;23.388;2023-07-13T12:28:30;9.25;;;5.38;;
10260;SDS011;5175;42.606;23.388;2023-07-13T12:30:58;10.20;;;5.20;;
10260;SDS011;5175;42.606;23.388;2023-07-13T12:33:27;9.68;;;5.78;;
10260;SDS011;5175;42.606;23.388;2023-07-13T12:35:54;10.23;;;5.47;;
10260;SDS011;5175;42.606;23.388;2023-07-13T12:38:24;10.05;;;5.40;;
10260;SDS011;5175;42.606;23.388;2023-07-13T12:40:51;8.50;;;5.25;;
10260;SDS011;5175;42.606;23.388;2023-07-13T12:43:20;10.77;;;5.80;;
10260;SDS011;5175;42.606;23.388;2023-07-13T12:45:54;8.25;;;5.53;;
10260;SDS011;5175;42.606;23.388;2023-07-13T12:48:22;9.52;;;5.93;;
10260;SDS011;5175;42.606;23.388;2023-07-13T12:50:50;7.07;;;5.30;;
10260;SDS011;5175;42.606;23.388;2023-07-13T12:53:19;7.70;;;5.57;;
10260;SDS011;5175;42.606;23.388;2023-07-13T12:55:47;8.15;;;5.47;;
10260;SDS011;5175;42.606;23.388;2023-07-13T12:58:19;8.77;;;5.20;;
10260;SDS011;5175;42.606;23.388;2023-07-13T13:00:50;6.25;;;5.10;;
10260;SDS011;5175;42.606;23.388;2023-07-13T13:03:21;7.82;;;5.13;;
10260;SDS011;5175;42.606;23.388;2023-07-13T13:05:59;9.18;;;5.20;;
10260;SDS011;5175;42.606;23.388;2023-07-13T13:08:29;6.65;;;4.97;;
10260;SDS011;5175;42.606;23.388;2023-07-13T13:10:56;10.05;;;5.70;;
10260;SDS011;5175;42.606;23.388;2023-07-13T13:13:25;10.32;;;5.45;;
10260;SDS011;5175;42.606;23.388;2023-07-13T13:15:52;7.03;;;4.97;;
10260;SDS011;5175;42.606;23.388;2023-07-13T13:18:20;7.57;;;5.38;;
10260;SDS011;5175;42.606;23.388;2023-07-13T13:20:48;8.70;;;5.28;;
10260;SDS011;5175;42.606;23.388;2023-07-13T13:23:15;11.77;;;5.40;;
10260;SDS011;5175;42.606;23.388;2023-07-13T13:25:45;9.05;;;4.85;;
10260;SDS011;5175;42.606;23.388;2023-07-13T13:28:15;8.90;;;5.07;;
10260;SDS011;5175;42.606;23.388;2023-07-13T13:30:43;9.15;;;4.85;;
10260;SDS011;5175;42.606;23.388;2023-07-13T13:33:10;7.05;;;4.90;;
10260;SDS011;5175;42.606;23.388;2023-07-13T13:35:38;6.40;;;5.07;;
10260;SDS011;5175;42.606;23.388;2023-07-13T13:38:09;11.93;;;5.35;;
10260;SDS011;5175;42.606;23.388;2023-07-13T13:40:39;7.57;;;4.82;;
10260;SDS011;5175;42.606;23.388;2023-07-13T13:43:14;6.82;;;5.18;;
10260;SDS011;5175;42.606;23.388;2023-07-13T13:45:42;11.23;;;5.03;;
10260;SDS011;5175;42.606;23.388;2023-07-13T13:48:13;10.07;;;5.07;;
10260;SDS011;5175;42.606;23.388;2023-07-13T13:50:41;7.53;;;5.00;;
10260;SDS011;5175;42.606;23.388;2023-07-13T13:53:09;8.00;;;5.00;;
10260;SDS011;5175;42.606;23.388;2023-07-13T13:55:37;8.13;;;4.70;;
10260;SDS011;5175;42.606;23.388;2023-07-13T13:58:04;5.50;;;4.53;;
10260;SDS011;5175;42.606;23.388;2023-07-13T14:00:32;9.18;;;4.93;;
10260;SDS011;5175;42.606;23.388;2023-07-13T14:02:59;7.43;;;4.85;;
10260;SDS011;5175;42.606;23.388;2023-07-13T14:05:26;8.68;;;4.65;;
10260;SDS011;5175;42.606;23.388;2023-07-13T14:07:53;5.88;;;4.82;;
10260;SDS011;5175;42.606;23.388;2023-07-13T14:10:21;7.68;;;4.40;;
10260;SDS011;5175;42.606;23.388;2023-07-13T14:12:50;5.97;;;4.93;;
10260;SDS011;5175;42.606;23.388;2023-07-13T14:15:20;6.88;;;4.45;;
10260;SDS011;5175;42.606;23.388;2023-07-13T14:17:49;9.88;;;5.03;;
10260;SDS011;5175;42.606;23.388;2023-07-13T14:20:16;9.50;;;5.07;;
10260;SDS011;5175;42.606;23.388;2023-07-13T14:22:43;9.57;;;4.65;;
10260;SDS011;5175;42.606;23.388;2023-07-13T14:25:11;6.93;;;4.53;;
10260;SDS011;5175;42.606;23.388;2023-07-13T14:27:38;7.55;;;4.65;;
10260;SDS011;5175;42.606;23.388;2023-07-13T14:30:07;7.60;;;4.50;;
10260;SDS011;5175;42.606;23.388;2023-07-13T14:32:39;6.80;;;4.68;;
10260;SDS011;5175;42.606;23.388;2023-07-13T14:35:08;9.18;;;4.90;;
10260;SDS011;5175;42.606;23.388;2023-07-13T14:37:36;7.53;;;4.50;;
10260;SDS011;5175;42.606;23.388;2023-07-13T14:40:08;6.57;;;4.55;;
10260;SDS011;5175;42.606;23.388;2023-07-13T14:42:39;11.40;;;4.95;;
10260;SDS011;5175;42.606;23.388;2023-07-13T14:45:11;7.22;;;5.10;;
10260;SDS011;5175;42.606;23.388;2023-07-13T14:47:39;11.20;;;5.57;;
10260;SDS011;5175;42.606;23.388;2023-07-13T14:50:12;7.28;;;5.10;;
10260;SDS011;5175;42.606;23.388;2023-07-13T14:52:41;11.45;;;5.00;;
10260;SDS011;5175;42.606;23.388;2023-07-13T14:55:10;7.13;;;5.00;;
10260;SDS011;5175;42.606;23.388;2023-07-13T14:57:37;34.47;;;12.07;;